sensor_id;sensor_type;location;lat;lon;timestamp;P1;durP1;ratioP1;P2;durP2;ratioP2
29908;SDS011;36247;51.952;6.146;2024-02-21T00:01:47;41.95;;;18.75;;
29908;SDS011;36247;51.952;6.146;2024-02-21T00:04:12;39.70;;;17.23;;
29908;SDS011;36247;51.952;6.146;2024-02-21T00:06:37;38.40;;;17.63;;
29908;SDS011;36247;51.952;6.146;2024-02-21T00:09:03;33.60;;;17.30;;
29908;SDS011;36247;51.952;6.146;2024-02-21T00:11:28;34.22;;;16.38;;
29908;SDS011;36247;51.952;6.146;2024-02-21T00:13:54;39.00;;;16.33;;
29908;SDS011;36247;51.952;6.146;2024-02-21T00:16:19;50.25;;;17.98;;
29908;SDS011;36247;51.952;6.146;2024-02-21T00:18:44;39.55;;;16.10;;
29908;SDS011;36247;51.952;6.146;2024-02-21T00:21:10;32.97;;;16.33;;
29908;SDS011;36247;51.952;6.146;2024-02-21T00:23:40;35.15;;;16.88;;
29908;SDS011;36247;51.952;6.146;2024-02-21T00:26:06;43.05;;;18.20;;
29908;SDS011;36247;51.952;6.146;2024-02-21T00:28:32;29.33;;;13.23;;
29908;SDS011;36247;51.952;6.146;2024-02-21T00:30:58;34.10;;;16.92;;
29908;SDS011;36247;51.952;6.146;2024-02-21T00:33:23;34.00;;;16.38;;
29908;SDS011;36247;51.952;6.146;2024-02-21T00:35:48;45.53;;;17.33;;
29908;SDS011;36247;51.952;6.146;2024-02-21T00:38:14;33.65;;;16.95;;
29908;SDS011;36247;51.952;6.146;2024-02-21T00:40:40;38.50;;;18.67;;
29908;SDS011;36247;51.952;6.146;2024-02-21T00:43:06;36.53;;;17.65;;
29908;SDS011;36247;51.952;6.146;2024-02-21T00:45:31;34.47;;;17.65;;
29908;SDS011;36247;51.952;6.146;2024-02-21T00:47:56;36.38;;;16.88;;
29908;SDS011;36247;51.952;6.146;2024-02-21T00:50:22;34.35;;;15.77;;
29908;SDS011;36247;51.952;6.146;2024-02-21T00:52:47;42.22;;;17.92;;
29908;SDS011;36247;51.952;6.146;2024-02-21T00:55:13;45.88;;;18.67;;
29908;SDS011;36247;51.952;6.146;2024-02-21T00:57:39;35.47;;;17.92;;
29908;SDS011;36247;51.952;6.146;2024-02-21T01:00:04;34.58;;;16.92;;
29908;SDS011;36247;51.952;6.146;2024-02-21T01:02:30;34.53;;;14.95;;
29908;SDS011;36247;51.952;6.146;2024-02-21T01:04:59;42.42;;;16.67;;
29908;SDS011;36247;51.952;6.146;2024-02-21T01:07:25;36.13;;;15.98;;
29908;SDS011;36247;51.952;6.146;2024-02-21T01:09:50;39.25;;;17.38;;
29908;SDS011;36247;51.952;6.146;2024-02-21T01:12:16;36.53;;;17.95;;
29908;SDS011;36247;51.952;6.146;2024-02-21T01:14:42;31.63;;;16.98;;
29908;SDS011;36247;51.952;6.146;2024-02-21T01:17:07;37.08;;;18.02;;
29908;SDS011;36247;51.952;6.146;2024-02-21T01:19:32;33.58;;;18.45;;
29908;SDS011;36247;51.952;6.146;2024-02-21T01:21:58;33.08;;;18.17;;
29908;SDS011;36247;51.952;6.146;2024-02-21T01:24:23;39.05;;;17.73;;
29908;SDS011;36247;51.952;6.146;2024-02-21T01:26:49;34.95;;;15.90;;
29908;SDS011;36247;51.952;6.146;2024-02-21T01:29:15;36.22;;;17.77;;
29908;SDS011;36247;51.952;6.146;2024-02-21T01:31:40;41.30;;;17.52;;
29908;SDS011;36247;51.952;6.146;2024-02-21T01:34:05;36.13;;;16.92;;
29908;SDS011;36247;51.952;6.146;2024-02-21T01:36:31;36.88;;;17.95;;
29908;SDS011;36247;51.952;6.146;2024-02-21T01:38:56;27.23;;;13.07;;
29908;SDS011;36247;51.952;6.146;2024-02-21T01:41:21;39.28;;;16.48;;
29908;SDS011;36247;51.952;6.146;2024-02-21T01:43:47;38.08;;;17.38;;
29908;SDS011;36247;51.952;6.146;2024-02-21T01:46:12;40.25;;;16.67;;
29908;SDS011;36247;51.952;6.146;2024-02-21T01:48:38;36.65;;;17.52;;
29908;SDS011;36247;51.952;6.146;2024-02-21T01:51:04;40.33;;;15.30;;
29908;SDS011;36247;51.952;6.146;2024-02-21T01:53:30;38.13;;;17.45;;
29908;SDS011;36247;51.952;6.146;2024-02-21T01:55:59;36.55;;;17.42;;
29908;SDS011;36247;51.952;6.146;2024-02-21T01:58:25;40.13;;;17.27;;
29908;SDS011;36247;51.952;6.146;2024-02-21T02:00:52;35.88;;;16.08;;
29908;SDS011;36247;51.952;6.146;2024-02-21T02:03:21;33.47;;;17.38;;
29908;SDS011;36247;51.952;6.146;2024-02-21T02:05:47;46.35;;;17.27;;
29908;SDS011;36247;51.952;6.146;2024-02-21T02:08:17;36.30;;;16.27;;
29908;SDS011;36247;51.952;6.146;2024-02-21T02:10:44;43.05;;;18.08;;
29908;SDS011;36247;51.952;6.146;2024-02-21T02:13:10;33.90;;;17.35;;
29908;SDS011;36247;51.952;6.146;2024-02-21T02:18:09;38.95;;;18.95;;
29908;SDS011;36247;51.952;6.146;2024-02-21T02:20:35;31.52;;;15.13;;
29908;SDS011;36247;51.952;6.146;2024-02-21T02:23:11;33.30;;;15.98;;
29908;SDS011;36247;51.952;6.146;2024-02-21T02:25:37;32.80;;;15.68;;
29908;SDS011;36247;51.952;6.146;2024-02-21T02:28:05;38.97;;;16.95;;
29908;SDS011;36247;51.952;6.146;2024-02-21T02:30:36;31.92;;;15.70;;
29908;SDS011;36247;51.952;6.146;2024-02-21T02:33:04;38.90;;;17.20;;
29908;SDS011;36247;51.952;6.146;2024-02-21T02:35:30;40.75;;;16.23;;
29908;SDS011;36247;51.952;6.146;2024-02-21T02:37:56;19.95;;;12.07;;
29908;SDS011;36247;51.952;6.146;2024-02-21T02:40:22;42.50;;;15.65;;
29908;SDS011;36247;51.952;6.146;2024-02-21T02:42:48;37.70;;;17.30;;
29908;SDS011;36247;51.952;6.146;2024-02-21T02:45:17;34.95;;;16.48;;
29908;SDS011;36247;51.952;6.146;2024-02-21T02:47:46;26.67;;;14.13;;
29908;SDS011;36247;51.952;6.146;2024-02-21T02:50:12;42.17;;;16.13;;
29908;SDS011;36247;51.952;6.146;2024-02-21T02:52:38;35.75;;;13.35;;
29908;SDS011;36247;51.952;6.146;2024-02-21T02:55:04;31.10;;;16.52;;
29908;SDS011;36247;51.952;6.146;2024-02-21T02:57:30;34.10;;;15.20;;
29908;SDS011;36247;51.952;6.146;2024-02-21T02:59:55;29.92;;;14.25;;
29908;SDS011;36247;51.952;6.146;2024-02-21T03:02:21;33.55;;;14.27;;
29908;SDS011;36247;51.952;6.146;2024-02-21T03:04:46;23.73;;;14.45;;
29908;SDS011;36247;51.952;6.146;2024-02-21T03:07:11;29.88;;;14.45;;
29908;SDS011;36247;51.952;6.146;2024-02-21T03:09:37;29.73;;;14.88;;
29908;SDS011;36247;51.952;6.146;2024-02-21T03:12:03;37.17;;;14.35;;
29908;SDS011;36247;51.952;6.146;2024-02-21T03:14:29;36.05;;;14.75;;
29908;SDS011;36247;51.952;6.146;2024-02-21T03:16:55;30.23;;;15.45;;
29908;SDS011;36247;51.952;6.146;2024-02-21T03:19:21;30.73;;;12.80;;
29908;SDS011;36247;51.952;6.146;2024-02-21T03:21:47;30.60;;;14.18;;
29908;SDS011;36247;51.952;6.146;2024-02-21T03:24:14;28.30;;;14.10;;
29908;SDS011;36247;51.952;6.146;2024-02-21T03:26:40;26.33;;;12.27;;
29908;SDS011;36247;51.952;6.146;2024-02-21T03:29:05;40.60;;;13.98;;
29908;SDS011;36247;51.952;6.146;2024-02-21T03:31:31;27.80;;;14.15;;
29908;SDS011;36247;51.952;6.146;2024-02-21T03:33:56;27.73;;;12.57;;
29908;SDS011;36247;51.952;6.146;2024-02-21T03:36:21;23.88;;;12.35;;
29908;SDS011;36247;51.952;6.146;2024-02-21T03:38:47;26.40;;;12.57;;
29908;SDS011;36247;51.952;6.146;2024-02-21T03:41:12;32.72;;;11.90;;
29908;SDS011;36247;51.952;6.146;2024-02-21T03:43:38;32.47;;;12.30;;
29908;SDS011;36247;51.952;6.146;2024-02-21T03:46:04;23.02;;;12.10;;
29908;SDS011;36247;51.952;6.146;2024-02-21T03:48:29;28.58;;;11.73;;
29908;SDS011;36247;51.952;6.146;2024-02-21T03:50:55;24.85;;;11.65;;
29908;SDS011;36247;51.952;6.146;2024-02-21T03:53:20;32.80;;;12.27;;
29908;SDS011;36247;51.952;6.146;2024-02-21T03:55:45;29.85;;;11.82;;
29908;SDS011;36247;51.952;6.146;2024-02-21T03:58:11;27.98;;;12.02;;
29908;SDS011;36247;51.952;6.146;2024-02-21T04:00:36;32.08;;;11.73;;
29908;SDS011;36247;51.952;6.146;2024-02-21T04:03:02;33.35;;;12.32;;
29908;SDS011;36247;51.952;6.146;2024-02-21T04:05:27;22.65;;;11.25;;
29908;SDS011;36247;51.952;6.146;2024-02-21T04:07:53;36.00;;;11.48;;
29908;SDS011;36247;51.952;6.146;2024-02-21T04:10:18;23.40;;;10.35;;
29908;SDS011;36247;51.952;6.146;2024-02-21T04:12:44;25.67;;;10.80;;
29908;SDS011;36247;51.952;6.146;2024-02-21T04:15:09;28.48;;;12.00;;
29908;SDS011;36247;51.952;6.146;2024-02-21T04:17:35;22.70;;;10.80;;
29908;SDS011;36247;51.952;6.146;2024-02-21T04:20:04;22.38;;;10.15;;
29908;SDS011;36247;51.952;6.146;2024-02-21T04:22:30;24.88;;;10.55;;
29908;SDS011;36247;51.952;6.146;2024-02-21T04:24:59;25.98;;;11.38;;
29908;SDS011;36247;51.952;6.146;2024-02-21T04:27:24;26.05;;;11.18;;
29908;SDS011;36247;51.952;6.146;2024-02-21T04:29:50;30.05;;;11.70;;
29908;SDS011;36247;51.952;6.146;2024-02-21T04:32:15;22.08;;;11.15;;
29908;SDS011;36247;51.952;6.146;2024-02-21T04:34:41;25.45;;;11.80;;
29908;SDS011;36247;51.952;6.146;2024-02-21T04:37:06;22.65;;;11.85;;
29908;SDS011;36247;51.952;6.146;2024-02-21T04:39:32;23.48;;;11.45;;
29908;SDS011;36247;51.952;6.146;2024-02-21T04:41:57;24.90;;;10.85;;
29908;SDS011;36247;51.952;6.146;2024-02-21T04:44:23;31.10;;;11.95;;
29908;SDS011;36247;51.952;6.146;2024-02-21T04:46:48;28.10;;;13.27;;
29908;SDS011;36247;51.952;6.146;2024-02-21T04:49:14;31.65;;;12.13;;
29908;SDS011;36247;51.952;6.146;2024-02-21T04:51:40;20.45;;;10.48;;
29908;SDS011;36247;51.952;6.146;2024-02-21T04:54:06;28.50;;;12.30;;
29908;SDS011;36247;51.952;6.146;2024-02-21T04:56:31;26.92;;;11.00;;
29908;SDS011;36247;51.952;6.146;2024-02-21T04:58:57;20.52;;;11.30;;
29908;SDS011;36247;51.952;6.146;2024-02-21T05:01:22;27.13;;;11.35;;
29908;SDS011;36247;51.952;6.146;2024-02-21T05:03:48;21.55;;;11.18;;
29908;SDS011;36247;51.952;6.146;2024-02-21T05:06:13;22.27;;;11.25;;
29908;SDS011;36247;51.952;6.146;2024-02-21T05:08:40;23.90;;;11.20;;
29908;SDS011;36247;51.952;6.146;2024-02-21T05:11:05;25.38;;;10.30;;
29908;SDS011;36247;51.952;6.146;2024-02-21T05:13:31;18.85;;;10.55;;
29908;SDS011;36247;51.952;6.146;2024-02-21T05:15:56;24.25;;;10.98;;
29908;SDS011;36247;51.952;6.146;2024-02-21T05:18:21;24.50;;;10.32;;
29908;SDS011;36247;51.952;6.146;2024-02-21T05:20:47;18.75;;;10.13;;
29908;SDS011;36247;51.952;6.146;2024-02-21T05:23:12;28.33;;;11.15;;
29908;SDS011;36247;51.952;6.146;2024-02-21T05:25:38;17.70;;;10.07;;
29908;SDS011;36247;51.952;6.146;2024-02-21T05:28:03;25.50;;;10.23;;
29908;SDS011;36247;51.952;6.146;2024-02-21T05:30:31;23.33;;;9.82;;
29908;SDS011;36247;51.952;6.146;2024-02-21T05:32:56;19.05;;;9.88;;
29908;SDS011;36247;51.952;6.146;2024-02-21T05:35:26;20.08;;;10.10;;
29908;SDS011;36247;51.952;6.146;2024-02-21T05:37:52;20.70;;;9.95;;
29908;SDS011;36247;51.952;6.146;2024-02-21T05:40:18;19.83;;;9.88;;
29908;SDS011;36247;51.952;6.146;2024-02-21T05:42:43;21.95;;;11.32;;
29908;SDS011;36247;51.952;6.146;2024-02-21T05:45:08;18.73;;;10.27;;
29908;SDS011;36247;51.952;6.146;2024-02-21T05:47:34;25.65;;;10.35;;
29908;SDS011;36247;51.952;6.146;2024-02-21T05:50:00;21.90;;;11.27;;
29908;SDS011;36247;51.952;6.146;2024-02-21T05:52:25;23.45;;;10.55;;
29908;SDS011;36247;51.952;6.146;2024-02-21T05:54:50;18.85;;;8.57;;
29908;SDS011;36247;51.952;6.146;2024-02-21T05:57:17;23.38;;;9.98;;
29908;SDS011;36247;51.952;6.146;2024-02-21T05:59:43;22.60;;;11.38;;
29908;SDS011;36247;51.952;6.146;2024-02-21T06:02:08;22.00;;;9.85;;
29908;SDS011;36247;51.952;6.146;2024-02-21T06:04:34;25.33;;;11.48;;
29908;SDS011;36247;51.952;6.146;2024-02-21T06:07:00;21.83;;;10.10;;
29908;SDS011;36247;51.952;6.146;2024-02-21T06:09:26;22.92;;;11.43;;
29908;SDS011;36247;51.952;6.146;2024-02-21T06:11:51;24.20;;;11.45;;
29908;SDS011;36247;51.952;6.146;2024-02-21T06:14:17;25.42;;;10.25;;
29908;SDS011;36247;51.952;6.146;2024-02-21T06:16:43;21.42;;;9.27;;
29908;SDS011;36247;51.952;6.146;2024-02-21T06:19:09;22.45;;;9.80;;
29908;SDS011;36247;51.952;6.146;2024-02-21T06:21:35;21.05;;;8.88;;
29908;SDS011;36247;51.952;6.146;2024-02-21T06:24:00;19.40;;;8.48;;
29908;SDS011;36247;51.952;6.146;2024-02-21T06:26:25;24.70;;;8.98;;
29908;SDS011;36247;51.952;6.146;2024-02-21T06:28:51;15.63;;;9.18;;
29908;SDS011;36247;51.952;6.146;2024-02-21T06:31:16;19.35;;;9.80;;
29908;SDS011;36247;51.952;6.146;2024-02-21T06:33:42;19.13;;;9.20;;
29908;SDS011;36247;51.952;6.146;2024-02-21T06:36:08;23.30;;;10.13;;
29908;SDS011;36247;51.952;6.146;2024-02-21T06:38:33;21.25;;;9.30;;
29908;SDS011;36247;51.952;6.146;2024-02-21T06:40:59;20.25;;;10.23;;
29908;SDS011;36247;51.952;6.146;2024-02-21T06:43:25;25.17;;;10.48;;
29908;SDS011;36247;51.952;6.146;2024-02-21T06:45:51;22.45;;;10.65;;
29908;SDS011;36247;51.952;6.146;2024-02-21T06:48:17;19.92;;;10.45;;
29908;SDS011;36247;51.952;6.146;2024-02-21T06:50:43;20.23;;;10.35;;
29908;SDS011;36247;51.952;6.146;2024-02-21T06:53:09;22.52;;;10.38;;
29908;SDS011;36247;51.952;6.146;2024-02-21T06:55:34;30.45;;;11.50;;
29908;SDS011;36247;51.952;6.146;2024-02-21T06:58:00;25.05;;;11.75;;
29908;SDS011;36247;51.952;6.146;2024-02-21T07:00:27;25.35;;;12.23;;
29908;SDS011;36247;51.952;6.146;2024-02-21T07:02:56;25.67;;;10.88;;
29908;SDS011;36247;51.952;6.146;2024-02-21T07:05:21;23.77;;;10.68;;
29908;SDS011;36247;51.952;6.146;2024-02-21T07:07:47;25.40;;;12.02;;
29908;SDS011;36247;51.952;6.146;2024-02-21T07:10:12;28.85;;;11.73;;
29908;SDS011;36247;51.952;6.146;2024-02-21T07:12:38;28.50;;;11.43;;
29908;SDS011;36247;51.952;6.146;2024-02-21T07:15:07;21.85;;;12.02;;
29908;SDS011;36247;51.952;6.146;2024-02-21T07:17:32;25.75;;;11.93;;
29908;SDS011;36247;51.952;6.146;2024-02-21T07:19:58;21.73;;;12.52;;
29908;SDS011;36247;51.952;6.146;2024-02-21T07:22:24;33.53;;;13.88;;
29908;SDS011;36247;51.952;6.146;2024-02-21T07:24:50;33.53;;;12.85;;
29908;SDS011;36247;51.952;6.146;2024-02-21T07:27:15;25.90;;;12.57;;
29908;SDS011;36247;51.952;6.146;2024-02-21T07:29:41;27.45;;;12.00;;
29908;SDS011;36247;51.952;6.146;2024-02-21T07:32:06;25.30;;;11.88;;
29908;SDS011;36247;51.952;6.146;2024-02-21T07:34:32;30.42;;;11.98;;
29908;SDS011;36247;51.952;6.146;2024-02-21T07:36:57;29.35;;;11.15;;
29908;SDS011;36247;51.952;6.146;2024-02-21T07:39:23;32.15;;;11.65;;
29908;SDS011;36247;51.952;6.146;2024-02-21T07:41:48;24.15;;;12.20;;
29908;SDS011;36247;51.952;6.146;2024-02-21T07:44:14;27.83;;;12.07;;
29908;SDS011;36247;51.952;6.146;2024-02-21T07:46:40;30.08;;;11.73;;
29908;SDS011;36247;51.952;6.146;2024-02-21T07:49:06;25.23;;;10.48;;
29908;SDS011;36247;51.952;6.146;2024-02-21T07:51:31;23.45;;;11.73;;
29908;SDS011;36247;51.952;6.146;2024-02-21T07:53:57;23.30;;;11.93;;
29908;SDS011;36247;51.952;6.146;2024-02-21T07:56:22;20.90;;;10.05;;
29908;SDS011;36247;51.952;6.146;2024-02-21T07:58:47;25.27;;;9.98;;
29908;SDS011;36247;51.952;6.146;2024-02-21T08:01:18;22.17;;;10.02;;
29908;SDS011;36247;51.952;6.146;2024-02-21T08:03:45;27.83;;;11.10;;
29908;SDS011;36247;51.952;6.146;2024-02-21T08:06:11;22.08;;;10.85;;
29908;SDS011;36247;51.952;6.146;2024-02-21T08:08:40;27.40;;;10.50;;
29908;SDS011;36247;51.952;6.146;2024-02-21T08:11:05;24.85;;;11.25;;
29908;SDS011;36247;51.952;6.146;2024-02-21T08:13:31;23.20;;;12.30;;
29908;SDS011;36247;51.952;6.146;2024-02-21T08:15:56;21.95;;;11.25;;
29908;SDS011;36247;51.952;6.146;2024-02-21T08:18:22;25.52;;;11.40;;
29908;SDS011;36247;51.952;6.146;2024-02-21T08:20:48;22.65;;;11.57;;
29908;SDS011;36247;51.952;6.146;2024-02-21T08:23:15;26.95;;;12.57;;
29908;SDS011;36247;51.952;6.146;2024-02-21T08:25:41;24.80;;;11.90;;
29908;SDS011;36247;51.952;6.146;2024-02-21T08:28:07;22.15;;;11.18;;
29908;SDS011;36247;51.952;6.146;2024-02-21T08:30:33;29.48;;;12.45;;
29908;SDS011;36247;51.952;6.146;2024-02-21T08:32:59;21.67;;;11.77;;
29908;SDS011;36247;51.952;6.146;2024-02-21T08:35:25;23.40;;;11.73;;
29908;SDS011;36247;51.952;6.146;2024-02-21T08:37:50;26.80;;;12.88;;
29908;SDS011;36247;51.952;6.146;2024-02-21T08:40:16;21.75;;;12.65;;
29908;SDS011;36247;51.952;6.146;2024-02-21T08:42:46;24.83;;;12.32;;
29908;SDS011;36247;51.952;6.146;2024-02-21T08:45:13;27.27;;;13.00;;
29908;SDS011;36247;51.952;6.146;2024-02-21T08:47:41;30.60;;;12.93;;
29908;SDS011;36247;51.952;6.146;2024-02-21T08:50:07;22.77;;;11.63;;
29908;SDS011;36247;51.952;6.146;2024-02-21T08:52:35;25.65;;;11.63;;
29908;SDS011;36247;51.952;6.146;2024-02-21T08:55:00;24.80;;;12.02;;
29908;SDS011;36247;51.952;6.146;2024-02-21T08:57:26;22.30;;;11.27;;
29908;SDS011;36247;51.952;6.146;2024-02-21T08:59:52;24.35;;;11.32;;
29908;SDS011;36247;51.952;6.146;2024-02-21T09:02:17;25.55;;;11.50;;
29908;SDS011;36247;51.952;6.146;2024-02-21T09:04:43;17.85;;;10.27;;
29908;SDS011;36247;51.952;6.146;2024-02-21T09:07:11;19.40;;;11.00;;
29908;SDS011;36247;51.952;6.146;2024-02-21T09:09:36;22.52;;;10.98;;
29908;SDS011;36247;51.952;6.146;2024-02-21T09:12:06;21.52;;;10.68;;
29908;SDS011;36247;51.952;6.146;2024-02-21T09:14:32;19.52;;;10.40;;
29908;SDS011;36247;51.952;6.146;2024-02-21T09:16:58;20.88;;;9.77;;
29908;SDS011;36247;51.952;6.146;2024-02-21T09:19:23;18.75;;;11.07;;
29908;SDS011;36247;51.952;6.146;2024-02-21T09:21:49;20.85;;;10.77;;
29908;SDS011;36247;51.952;6.146;2024-02-21T09:24:14;19.20;;;11.15;;
29908;SDS011;36247;51.952;6.146;2024-02-21T09:26:40;16.73;;;10.02;;
29908;SDS011;36247;51.952;6.146;2024-02-21T09:29:05;20.42;;;10.05;;
29908;SDS011;36247;51.952;6.146;2024-02-21T09:31:30;20.10;;;10.15;;
29908;SDS011;36247;51.952;6.146;2024-02-21T09:33:56;23.52;;;9.77;;
29908;SDS011;36247;51.952;6.146;2024-02-21T09:36:21;25.63;;;10.95;;
29908;SDS011;36247;51.952;6.146;2024-02-21T09:38:47;20.20;;;10.48;;
29908;SDS011;36247;51.952;6.146;2024-02-21T09:41:16;17.40;;;10.07;;
29908;SDS011;36247;51.952;6.146;2024-02-21T09:43:42;15.50;;;9.90;;
29908;SDS011;36247;51.952;6.146;2024-02-21T09:46:13;18.52;;;9.50;;
29908;SDS011;36247;51.952;6.146;2024-02-21T09:51:22;13.27;;;8.32;;
29908;SDS011;36247;51.952;6.146;2024-02-21T09:53:50;19.67;;;9.10;;
29908;SDS011;36247;51.952;6.146;2024-02-21T09:56:16;17.25;;;10.07;;
29908;SDS011;36247;51.952;6.146;2024-02-21T09:58:41;19.73;;;9.73;;
29908;SDS011;36247;51.952;6.146;2024-02-21T10:01:07;17.95;;;9.23;;
29908;SDS011;36247;51.952;6.146;2024-02-21T10:03:34;22.38;;;9.60;;
29908;SDS011;36247;51.952;6.146;2024-02-21T10:05:59;20.50;;;10.13;;
29908;SDS011;36247;51.952;6.146;2024-02-21T10:08:26;16.77;;;9.23;;
29908;SDS011;36247;51.952;6.146;2024-02-21T10:10:52;18.00;;;9.45;;
29908;SDS011;36247;51.952;6.146;2024-02-21T10:13:27;17.20;;;9.25;;
29908;SDS011;36247;51.952;6.146;2024-02-21T10:16:03;15.07;;;8.75;;
29908;SDS011;36247;51.952;6.146;2024-02-21T10:18:30;18.58;;;9.57;;
29908;SDS011;36247;51.952;6.146;2024-02-21T10:21:02;16.27;;;9.27;;
29908;SDS011;36247;51.952;6.146;2024-02-21T10:23:28;17.15;;;8.07;;
29908;SDS011;36247;51.952;6.146;2024-02-21T10:25:54;18.67;;;9.10;;
29908;SDS011;36247;51.952;6.146;2024-02-21T10:28:29;17.70;;;8.40;;
29908;SDS011;36247;51.952;6.146;2024-02-21T10:30:54;17.30;;;8.95;;
29908;SDS011;36247;51.952;6.146;2024-02-21T10:33:20;10.90;;;7.28;;
29908;SDS011;36247;51.952;6.146;2024-02-21T10:35:46;14.60;;;7.07;;
29908;SDS011;36247;51.952;6.146;2024-02-21T10:38:12;13.80;;;7.47;;
29908;SDS011;36247;51.952;6.146;2024-02-21T10:40:38;14.13;;;7.22;;
29908;SDS011;36247;51.952;6.146;2024-02-21T10:43:03;13.52;;;7.05;;
29908;SDS011;36247;51.952;6.146;2024-02-21T10:45:32;14.13;;;7.60;;
29908;SDS011;36247;51.952;6.146;2024-02-21T10:48:06;12.15;;;7.55;;
29908;SDS011;36247;51.952;6.146;2024-02-21T10:56:21;17.00;;;8.88;;
29908;SDS011;36247;51.952;6.146;2024-02-21T10:58:49;17.40;;;8.88;;
29908;SDS011;36247;51.952;6.146;2024-02-21T11:01:15;14.05;;;8.23;;
29908;SDS011;36247;51.952;6.146;2024-02-21T11:03:43;11.43;;;8.13;;
29908;SDS011;36247;51.952;6.146;2024-02-21T11:06:13;11.82;;;8.18;;
29908;SDS011;36247;51.952;6.146;2024-02-21T11:08:41;14.95;;;8.60;;
29908;SDS011;36247;51.952;6.146;2024-02-21T11:11:06;13.70;;;8.80;;
29908;SDS011;36247;51.952;6.146;2024-02-21T11:13:32;15.48;;;9.10;;
29908;SDS011;36247;51.952;6.146;2024-02-21T11:16:10;16.77;;;8.68;;
29908;SDS011;36247;51.952;6.146;2024-02-21T11:18:37;14.35;;;7.90;;
29908;SDS011;36247;51.952;6.146;2024-02-21T11:21:03;14.75;;;9.35;;
29908;SDS011;36247;51.952;6.146;2024-02-21T11:23:32;14.07;;;8.90;;
29908;SDS011;36247;51.952;6.146;2024-02-21T11:26:10;15.73;;;8.45;;
29908;SDS011;36247;51.952;6.146;2024-02-21T11:28:44;13.98;;;8.65;;
29908;SDS011;36247;51.952;6.146;2024-02-21T11:31:13;14.75;;;8.73;;
29908;SDS011;36247;51.952;6.146;2024-02-21T11:33:39;16.73;;;9.15;;
29908;SDS011;36247;51.952;6.146;2024-02-21T11:36:07;16.15;;;8.50;;
29908;SDS011;36247;51.952;6.146;2024-02-21T11:38:36;19.48;;;9.90;;
29908;SDS011;36247;51.952;6.146;2024-02-21T11:41:01;15.38;;;8.50;;
29908;SDS011;36247;51.952;6.146;2024-02-21T11:43:27;13.18;;;8.40;;
29908;SDS011;36247;51.952;6.146;2024-02-21T11:45:59;18.13;;;7.63;;
29908;SDS011;36247;51.952;6.146;2024-02-21T11:50:55;15.13;;;7.55;;
29908;SDS011;36247;51.952;6.146;2024-02-21T11:53:21;22.42;;;7.72;;
29908;SDS011;36247;51.952;6.146;2024-02-21T11:55:47;14.93;;;7.60;;
29908;SDS011;36247;51.952;6.146;2024-02-21T11:58:13;17.85;;;7.40;;
29908;SDS011;36247;51.952;6.146;2024-02-21T12:00:38;12.23;;;7.72;;
29908;SDS011;36247;51.952;6.146;2024-02-21T12:03:04;17.38;;;8.88;;
29908;SDS011;36247;51.952;6.146;2024-02-21T12:05:30;14.68;;;6.63;;
29908;SDS011;36247;51.952;6.146;2024-02-21T12:07:56;17.08;;;8.38;;
29908;SDS011;36247;51.952;6.146;2024-02-21T12:10:23;11.57;;;6.78;;
29908;SDS011;36247;51.952;6.146;2024-02-21T12:12:51;13.18;;;6.75;;
29908;SDS011;36247;51.952;6.146;2024-02-21T12:15:17;10.35;;;6.40;;
29908;SDS011;36247;51.952;6.146;2024-02-21T12:17:43;14.90;;;6.13;;
29908;SDS011;36247;51.952;6.146;2024-02-21T12:20:10;15.25;;;7.07;;
29908;SDS011;36247;51.952;6.146;2024-02-21T12:22:36;13.02;;;7.28;;
29908;SDS011;36247;51.952;6.146;2024-02-21T12:25:21;13.15;;;7.05;;
29908;SDS011;36247;51.952;6.146;2024-02-21T12:27:48;18.98;;;7.93;;
29908;SDS011;36247;51.952;6.146;2024-02-21T12:30:14;12.93;;;8.10;;
29908;SDS011;36247;51.952;6.146;2024-02-21T12:32:40;14.38;;;7.50;;
29908;SDS011;36247;51.952;6.146;2024-02-21T12:35:06;16.13;;;7.40;;
29908;SDS011;36247;51.952;6.146;2024-02-21T12:37:32;16.48;;;7.80;;
29908;SDS011;36247;51.952;6.146;2024-02-21T12:39:58;18.10;;;7.07;;
29908;SDS011;36247;51.952;6.146;2024-02-21T12:42:23;16.10;;;7.72;;
29908;SDS011;36247;51.952;6.146;2024-02-21T12:44:51;15.18;;;7.05;;
29908;SDS011;36247;51.952;6.146;2024-02-21T12:47:19;16.35;;;7.90;;
29908;SDS011;36247;51.952;6.146;2024-02-21T12:49:48;14.10;;;6.78;;
29908;SDS011;36247;51.952;6.146;2024-02-21T12:52:14;14.38;;;7.00;;
29908;SDS011;36247;51.952;6.146;2024-02-21T12:54:39;17.00;;;6.85;;
29908;SDS011;36247;51.952;6.146;2024-02-21T12:57:05;13.35;;;6.07;;
29908;SDS011;36247;51.952;6.146;2024-02-21T12:59:30;13.15;;;6.72;;
29908;SDS011;36247;51.952;6.146;2024-02-21T13:01:56;21.23;;;7.53;;
29908;SDS011;36247;51.952;6.146;2024-02-21T13:04:21;17.00;;;6.78;;
29908;SDS011;36247;51.952;6.146;2024-02-21T13:06:48;13.32;;;6.70;;
29908;SDS011;36247;51.952;6.146;2024-02-21T13:09:13;20.52;;;6.47;;
29908;SDS011;36247;51.952;6.146;2024-02-21T13:11:39;19.35;;;7.20;;
29908;SDS011;36247;51.952;6.146;2024-02-21T13:14:06;17.30;;;6.22;;
29908;SDS011;36247;51.952;6.146;2024-02-21T13:16:31;16.88;;;7.10;;
29908;SDS011;36247;51.952;6.146;2024-02-21T13:18:59;20.55;;;7.50;;
29908;SDS011;36247;51.952;6.146;2024-02-21T13:21:24;16.58;;;6.65;;
29908;SDS011;36247;51.952;6.146;2024-02-21T13:23:50;15.75;;;6.18;;
29908;SDS011;36247;51.952;6.146;2024-02-21T13:26:16;12.55;;;6.70;;
29908;SDS011;36247;51.952;6.146;2024-02-21T13:28:41;15.30;;;7.28;;
29908;SDS011;36247;51.952;6.146;2024-02-21T13:31:09;16.60;;;7.20;;
29908;SDS011;36247;51.952;6.146;2024-02-21T13:33:35;15.07;;;6.85;;
29908;SDS011;36247;51.952;6.146;2024-02-21T13:36:01;14.77;;;7.32;;
29908;SDS011;36247;51.952;6.146;2024-02-21T13:38:28;15.90;;;7.78;;
29908;SDS011;36247;51.952;6.146;2024-02-21T13:40:54;14.10;;;7.10;;
29908;SDS011;36247;51.952;6.146;2024-02-21T13:43:19;16.90;;;7.28;;
29908;SDS011;36247;51.952;6.146;2024-02-21T13:45:55;16.17;;;6.53;;
29908;SDS011;36247;51.952;6.146;2024-02-21T13:48:22;12.38;;;6.40;;
29908;SDS011;36247;51.952;6.146;2024-02-21T13:50:47;13.23;;;7.30;;
29908;SDS011;36247;51.952;6.146;2024-02-21T13:53:13;17.23;;;7.15;;
29908;SDS011;36247;51.952;6.146;2024-02-21T13:55:38;14.40;;;6.72;;
29908;SDS011;36247;51.952;6.146;2024-02-21T13:58:05;13.15;;;7.20;;
29908;SDS011;36247;51.952;6.146;2024-02-21T14:00:31;20.95;;;7.18;;
29908;SDS011;36247;51.952;6.146;2024-02-21T14:02:59;17.25;;;8.15;;
29908;SDS011;36247;51.952;6.146;2024-02-21T14:05:26;14.90;;;6.43;;
29908;SDS011;36247;51.952;6.146;2024-02-21T14:07:51;14.88;;;6.50;;
29908;SDS011;36247;51.952;6.146;2024-02-21T14:10:19;13.07;;;6.53;;
29908;SDS011;36247;51.952;6.146;2024-02-21T14:12:45;12.90;;;7.20;;
29908;SDS011;36247;51.952;6.146;2024-02-21T14:15:10;15.10;;;6.32;;
29908;SDS011;36247;51.952;6.146;2024-02-21T14:17:36;12.65;;;5.60;;
29908;SDS011;36247;51.952;6.146;2024-02-21T14:20:02;12.45;;;6.18;;
29908;SDS011;36247;51.952;6.146;2024-02-21T14:22:29;14.75;;;7.50;;
29908;SDS011;36247;51.952;6.146;2024-02-21T14:24:55;16.45;;;6.43;;
29908;SDS011;36247;51.952;6.146;2024-02-21T14:27:21;14.02;;;6.18;;
29908;SDS011;36247;51.952;6.146;2024-02-21T14:29:47;11.10;;;6.00;;
29908;SDS011;36247;51.952;6.146;2024-02-21T14:32:12;19.42;;;6.40;;
29908;SDS011;36247;51.952;6.146;2024-02-21T14:34:38;10.27;;;5.60;;